sensor_id;sensor_type;location;lat;lon;timestamp;P1;durP1;ratioP1;P2;durP2;ratioP2
55617;SDS011;41492;49.804;9.952;2024-03-23T00:52:46;2.83;;;1.98;;
55617;SDS011;41492;49.804;9.952;2024-03-23T00:55:13;5.75;;;1.92;;
55617;SDS011;41492;49.804;9.952;2024-03-23T00:57:39;4.60;;;2.50;;
55617;SDS011;41492;49.804;9.952;2024-03-23T01:00:06;2.45;;;2.20;;
55617;SDS011;41492;49.804;9.952;2024-03-23T01:02:35;2.13;;;1.92;;
55617;SDS011;41492;49.804;9.952;2024-03-23T01:05:01;6.18;;;1.90;;
55617;SDS011;41492;49.804;9.952;2024-03-23T01:07:27;1.95;;;1.75;;
55617;SDS011;41492;49.804;9.952;2024-03-23T01:09:55;3.65;;;2.83;;
55617;SDS011;41492;49.804;9.952;2024-03-23T01:12:21;2.38;;;2.17;;
55617;SDS011;41492;49.804;9.952;2024-03-23T01:14:47;4.75;;;2.30;;
55617;SDS011;41492;49.804;9.952;2024-03-23T01:17:13;2.50;;;2.28;;
55617;SDS011;41492;49.804;9.952;2024-03-23T01:19:39;2.45;;;2.22;;
55617;SDS011;41492;49.804;9.952;2024-03-23T01:22:06;2.65;;;2.40;;
55617;SDS011;41492;49.804;9.952;2024-03-23T01:24:33;2.95;;;2.20;;
55617;SDS011;41492;49.804;9.952;2024-03-23T01:27:00;2.72;;;2.53;;
55617;SDS011;41492;49.804;9.952;2024-03-23T01:29:26;3.85;;;2.00;;
55617;SDS011;41492;49.804;9.952;2024-03-23T01:31:52;3.17;;;2.55;;
55617;SDS011;41492;49.804;9.952;2024-03-23T01:34:18;2.83;;;2.20;;
55617;SDS011;41492;49.804;9.952;2024-03-23T01:36:45;3.85;;;2.10;;
55617;SDS011;41492;49.804;9.952;2024-03-23T01:39:12;2.10;;;1.90;;
55617;SDS011;41492;49.804;9.952;2024-03-23T01:41:39;2.97;;;2.67;;
55617;SDS011;41492;49.804;9.952;2024-03-23T01:44:08;2.58;;;2.35;;
55617;SDS011;41492;49.804;9.952;2024-03-23T01:46:34;4.47;;;2.22;;
55617;SDS011;41492;49.804;9.952;2024-03-23T01:49:01;2.78;;;2.35;;
55617;SDS011;41492;49.804;9.952;2024-03-23T01:51:27;2.88;;;2.58;;
55617;SDS011;41492;49.804;9.952;2024-03-23T01:53:53;3.10;;;2.30;;
55617;SDS011;41492;49.804;9.952;2024-03-23T01:56:19;2.50;;;2.30;;
55617;SDS011;41492;49.804;9.952;2024-03-23T01:58:46;2.75;;;2.30;;
55617;SDS011;41492;49.804;9.952;2024-03-23T02:01:13;6.68;;;2.42;;
55617;SDS011;41492;49.804;9.952;2024-03-23T02:03:39;3.15;;;2.72;;
55617;SDS011;41492;49.804;9.952;2024-03-23T02:06:05;3.30;;;2.05;;
55617;SDS011;41492;49.804;9.952;2024-03-23T02:08:32;3.20;;;2.33;;
55617;SDS011;41492;49.804;9.952;2024-03-23T02:10:58;3.38;;;2.55;;
55617;SDS011;41492;49.804;9.952;2024-03-23T02:13:25;4.28;;;2.30;;
55617;SDS011;41492;49.804;9.952;2024-03-23T02:15:50;3.90;;;2.42;;
55617;SDS011;41492;49.804;9.952;2024-03-23T02:18:18;2.83;;;2.13;;
55617;SDS011;41492;49.804;9.952;2024-03-23T02:20:44;2.60;;;2.40;;
55617;SDS011;41492;49.804;9.952;2024-03-23T02:23:14;4.80;;;2.80;;
55617;SDS011;41492;49.804;9.952;2024-03-23T02:25:39;3.28;;;2.40;;
55617;SDS011;41492;49.804;9.952;2024-03-23T02:28:06;2.80;;;2.47;;
55617;SDS011;41492;49.804;9.952;2024-03-23T02:30:32;2.72;;;2.35;;
55617;SDS011;41492;49.804;9.952;2024-03-23T02:32:59;2.72;;;2.05;;
55617;SDS011;41492;49.804;9.952;2024-03-23T02:35:25;2.28;;;2.08;;
55617;SDS011;41492;49.804;9.952;2024-03-23T02:37:51;3.47;;;2.55;;
55617;SDS011;41492;49.804;9.952;2024-03-23T02:40:19;2.55;;;2.10;;
55617;SDS011;41492;49.804;9.952;2024-03-23T02:42:46;3.05;;;2.75;;
55617;SDS011;41492;49.804;9.952;2024-03-23T02:45:12;2.50;;;2.30;;
55617;SDS011;41492;49.804;9.952;2024-03-23T02:47:38;4.32;;;2.92;;
55617;SDS011;41492;49.804;9.952;2024-03-23T02:50:04;4.13;;;2.20;;
55617;SDS011;41492;49.804;9.952;2024-03-23T02:52:31;2.80;;;2.60;;
55617;SDS011;41492;49.804;9.952;2024-03-23T02:54:57;3.42;;;2.38;;
55617;SDS011;41492;49.804;9.952;2024-03-23T02:57:25;2.55;;;2.00;;
55617;SDS011;41492;49.804;9.952;2024-03-23T02:59:51;2.45;;;2.25;;
55617;SDS011;41492;49.804;9.952;2024-03-23T03:02:17;2.95;;;2.65;;
55617;SDS011;41492;49.804;9.952;2024-03-23T03:04:43;2.90;;;2.60;;
55617;SDS011;41492;49.804;9.952;2024-03-23T03:07:09;3.72;;;2.58;;
55617;SDS011;41492;49.804;9.952;2024-03-23T03:09:35;3.75;;;2.33;;
55617;SDS011;41492;49.804;9.952;2024-03-23T03:12:04;2.38;;;2.17;;
55617;SDS011;41492;49.804;9.952;2024-03-23T03:14:31;3.25;;;2.58;;
55617;SDS011;41492;49.804;9.952;2024-03-23T03:16:57;3.00;;;2.28;;
55617;SDS011;41492;49.804;9.952;2024-03-23T03:19:23;3.03;;;2.42;;
55617;SDS011;41492;49.804;9.952;2024-03-23T03:21:50;2.28;;;2.08;;
55617;SDS011;41492;49.804;9.952;2024-03-23T03:24:15;2.50;;;2.28;;
55617;SDS011;41492;49.804;9.952;2024-03-23T03:26:42;2.70;;;2.50;;
55617;SDS011;41492;49.804;9.952;2024-03-23T03:29:08;2.65;;;2.45;;
55617;SDS011;41492;49.804;9.952;2024-03-23T03:31:36;2.63;;;2.42;;
55617;SDS011;41492;49.804;9.952;2024-03-23T03:34:02;3.67;;;2.28;;
55617;SDS011;41492;49.804;9.952;2024-03-23T03:36:28;2.35;;;2.13;;
55617;SDS011;41492;49.804;9.952;2024-03-23T03:38:55;2.40;;;2.20;;
55617;SDS011;41492;49.804;9.952;2024-03-23T03:41:22;2.65;;;2.42;;
55617;SDS011;41492;49.804;9.952;2024-03-23T03:43:47;3.70;;;2.55;;
55617;SDS011;41492;49.804;9.952;2024-03-23T03:46:14;2.53;;;2.33;;
55617;SDS011;41492;49.804;9.952;2024-03-23T03:48:41;4.53;;;2.58;;
55617;SDS011;41492;49.804;9.952;2024-03-23T03:51:10;2.75;;;2.40;;
55617;SDS011;41492;49.804;9.952;2024-03-23T03:53:35;2.40;;;2.20;;
55617;SDS011;41492;49.804;9.952;2024-03-23T03:56:02;3.08;;;2.78;;
55617;SDS011;41492;49.804;9.952;2024-03-23T03:58:28;2.70;;;2.50;;
55617;SDS011;41492;49.804;9.952;2024-03-23T04:00:55;3.97;;;2.08;;
55617;SDS011;41492;49.804;9.952;2024-03-23T04:03:20;2.47;;;2.28;;
55617;SDS011;41492;49.804;9.952;2024-03-23T04:05:51;3.08;;;2.38;;
55617;SDS011;41492;49.804;9.952;2024-03-23T04:08:17;2.58;;;2.38;;
55617;SDS011;41492;49.804;9.952;2024-03-23T04:10:43;3.20;;;2.30;;
55617;SDS011;41492;49.804;9.952;2024-03-23T04:13:09;2.42;;;2.22;;
55617;SDS011;41492;49.804;9.952;2024-03-23T04:15:36;2.85;;;2.40;;
55617;SDS011;41492;49.804;9.952;2024-03-23T04:18:02;2.58;;;2.28;;
55617;SDS011;41492;49.804;9.952;2024-03-23T04:20:28;2.30;;;2.10;;
55617;SDS011;41492;49.804;9.952;2024-03-23T04:22:55;2.80;;;2.05;;
55617;SDS011;41492;49.804;9.952;2024-03-23T04:25:22;2.40;;;2.20;;
55617;SDS011;41492;49.804;9.952;2024-03-23T04:27:48;2.00;;;1.88;;
55617;SDS011;41492;49.804;9.952;2024-03-23T04:30:14;2.42;;;2.22;;
55617;SDS011;41492;49.804;9.952;2024-03-23T04:32:40;2.50;;;2.30;;
55617;SDS011;41492;49.804;9.952;2024-03-23T04:35:07;2.50;;;2.30;;
55617;SDS011;41492;49.804;9.952;2024-03-23T04:37:34;2.50;;;2.30;;
55617;SDS011;41492;49.804;9.952;2024-03-23T04:40:03;5.07;;;2.15;;
55617;SDS011;41492;49.804;9.952;2024-03-23T04:42:30;3.15;;;2.63;;
55617;SDS011;41492;49.804;9.952;2024-03-23T04:44:57;2.80;;;2.50;;
55617;SDS011;41492;49.804;9.952;2024-03-23T04:47:24;3.17;;;2.20;;
55617;SDS011;41492;49.804;9.952;2024-03-23T04:49:49;3.03;;;2.33;;
55617;SDS011;41492;49.804;9.952;2024-03-23T04:52:16;2.75;;;2.47;;
55617;SDS011;41492;49.804;9.952;2024-03-23T04:54:43;2.97;;;2.15;;
55617;SDS011;41492;49.804;9.952;2024-03-23T04:57:11;3.45;;;2.40;;
55617;SDS011;41492;49.804;9.952;2024-03-23T04:59:38;2.72;;;2.53;;
55617;SDS011;41492;49.804;9.952;2024-03-23T05:02:04;2.95;;;2.20;;
55617;SDS011;41492;49.804;9.952;2024-03-23T05:04:30;3.83;;;2.17;;
55617;SDS011;41492;49.804;9.952;2024-03-23T05:06:57;5.65;;;2.30;;
55617;SDS011;41492;49.804;9.952;2024-03-23T05:09:23;2.05;;;1.85;;
55617;SDS011;41492;49.804;9.952;2024-03-23T05:11:49;2.30;;;2.10;;
55617;SDS011;41492;49.804;9.952;2024-03-23T05:14:17;2.50;;;2.25;;
55617;SDS011;41492;49.804;9.952;2024-03-23T05:16:42;2.40;;;2.20;;
55617;SDS011;41492;49.804;9.952;2024-03-23T05:19:09;5.68;;;2.28;;
55617;SDS011;41492;49.804;9.952;2024-03-23T05:21:35;2.55;;;2.35;;
55617;SDS011;41492;49.804;9.952;2024-03-23T05:24:01;2.60;;;2.40;;
55617;SDS011;41492;49.804;9.952;2024-03-23T05:26:28;2.65;;;2.13;;
55617;SDS011;41492;49.804;9.952;2024-03-23T05:28:55;3.17;;;2.40;;
55617;SDS011;41492;49.804;9.952;2024-03-23T05:31:25;3.42;;;2.22;;
55617;SDS011;41492;49.804;9.952;2024-03-23T05:33:52;2.25;;;1.77;;
55617;SDS011;41492;49.804;9.952;2024-03-23T05:36:18;3.60;;;2.38;;
55617;SDS011;41492;49.804;9.952;2024-03-23T05:38:44;5.25;;;2.47;;
55617;SDS011;41492;49.804;9.952;2024-03-23T05:41:11;2.28;;;2.08;;
55617;SDS011;41492;49.804;9.952;2024-03-23T05:43:37;2.40;;;2.13;;
55617;SDS011;41492;49.804;9.952;2024-03-23T05:46:03;2.10;;;1.90;;
55617;SDS011;41492;49.804;9.952;2024-03-23T05:48:31;2.30;;;1.92;;
55617;SDS011;41492;49.804;9.952;2024-03-23T05:50:58;2.38;;;2.15;;
55617;SDS011;41492;49.804;9.952;2024-03-23T05:53:23;3.45;;;2.00;;
55617;SDS011;41492;49.804;9.952;2024-03-23T05:55:51;3.25;;;2.20;;
55617;SDS011;41492;49.804;9.952;2024-03-23T05:58:19;5.25;;;2.65;;
55617;SDS011;41492;49.804;9.952;2024-03-23T06:00:46;2.63;;;2.25;;
55617;SDS011;41492;49.804;9.952;2024-03-23T06:03:11;2.20;;;2.00;;
55617;SDS011;41492;49.804;9.952;2024-03-23T06:05:39;2.35;;;2.15;;
55617;SDS011;41492;49.804;9.952;2024-03-23T06:08:05;4.78;;;2.17;;
55617;SDS011;41492;49.804;9.952;2024-03-23T06:10:34;3.65;;;2.55;;
55617;SDS011;41492;49.804;9.952;2024-03-23T06:13:00;2.38;;;2.17;;
55617;SDS011;41492;49.804;9.952;2024-03-23T06:15:27;2.45;;;2.25;;
55617;SDS011;41492;49.804;9.952;2024-03-23T06:17:52;2.33;;;2.13;;
55617;SDS011;41492;49.804;9.952;2024-03-23T06:20:19;3.17;;;2.20;;
55617;SDS011;41492;49.804;9.952;2024-03-23T06:22:46;2.45;;;2.25;;
55617;SDS011;41492;49.804;9.952;2024-03-23T06:25:12;2.78;;;2.10;;
55617;SDS011;41492;49.804;9.952;2024-03-23T06:27:38;2.67;;;2.08;;
55617;SDS011;41492;49.804;9.952;2024-03-23T06:30:05;2.50;;;2.28;;
55617;SDS011;41492;49.804;9.952;2024-03-23T06:32:32;2.58;;;2.35;;
55617;SDS011;41492;49.804;9.952;2024-03-23T06:34:58;2.40;;;1.98;;
55617;SDS011;41492;49.804;9.952;2024-03-23T06:37:25;5.55;;;2.35;;
55617;SDS011;41492;49.804;9.952;2024-03-23T06:39:55;2.63;;;2.42;;
55617;SDS011;41492;49.804;9.952;2024-03-23T06:42:20;2.03;;;1.83;;
55617;SDS011;41492;49.804;9.952;2024-03-23T06:44:47;2.00;;;1.90;;
55617;SDS011;41492;49.804;9.952;2024-03-23T06:47:12;2.63;;;2.25;;
55617;SDS011;41492;49.804;9.952;2024-03-23T06:49:39;2.30;;;2.10;;
55617;SDS011;41492;49.804;9.952;2024-03-23T06:52:05;1.90;;;1.73;;
55617;SDS011;41492;49.804;9.952;2024-03-23T06:54:31;2.13;;;1.90;;
55617;SDS011;41492;49.804;9.952;2024-03-23T06:56:58;3.35;;;2.10;;
55617;SDS011;41492;49.804;9.952;2024-03-23T06:59:25;1.67;;;1.58;;
55617;SDS011;41492;49.804;9.952;2024-03-23T07:01:50;1.90;;;1.80;;
55617;SDS011;41492;49.804;9.952;2024-03-23T07:04:17;1.80;;;1.70;;
55617;SDS011;41492;49.804;9.952;2024-03-23T07:06:43;5.28;;;1.90;;
55617;SDS011;41492;49.804;9.952;2024-03-23T07:09:10;1.80;;;1.70;;
55617;SDS011;41492;49.804;9.952;2024-03-23T07:11:36;2.03;;;1.70;;
55617;SDS011;41492;49.804;9.952;2024-03-23T07:14:04;2.00;;;1.65;;
55617;SDS011;41492;49.804;9.952;2024-03-23T07:16:29;2.33;;;2.13;;
55617;SDS011;41492;49.804;9.952;2024-03-23T07:18:56;3.10;;;1.52;;
55617;SDS011;41492;49.804;9.952;2024-03-23T07:21:22;1.67;;;1.58;;
55617;SDS011;41492;49.804;9.952;2024-03-23T07:23:48;2.45;;;1.67;;
55617;SDS011;41492;49.804;9.952;2024-03-23T07:26:14;1.80;;;1.70;;
55617;SDS011;41492;49.804;9.952;2024-03-23T07:28:41;6.70;;;1.83;;
55617;SDS011;41492;49.804;9.952;2024-03-23T07:31:10;1.98;;;1.77;;
55617;SDS011;41492;49.804;9.952;2024-03-23T07:33:41;2.03;;;1.70;;
55617;SDS011;41492;49.804;9.952;2024-03-23T07:36:07;1.40;;;1.30;;
55617;SDS011;41492;49.804;9.952;2024-03-23T07:38:33;2.35;;;1.42;;
55617;SDS011;41492;49.804;9.952;2024-03-23T07:41:03;3.05;;;1.40;;
55617;SDS011;41492;49.804;9.952;2024-03-23T07:43:30;1.40;;;1.30;;
55617;SDS011;41492;49.804;9.952;2024-03-23T07:45:56;1.55;;;1.45;;
55617;SDS011;41492;49.804;9.952;2024-03-23T07:48:24;1.95;;;1.75;;
55617;SDS011;41492;49.804;9.952;2024-03-23T07:50:56;1.60;;;1.50;;
55617;SDS011;41492;49.804;9.952;2024-03-23T07:53:26;1.65;;;1.40;;
55617;SDS011;41492;49.804;9.952;2024-03-23T07:55:55;3.90;;;1.20;;
55617;SDS011;41492;49.804;9.952;2024-03-23T07:58:23;1.42;;;1.33;;
55617;SDS011;41492;49.804;9.952;2024-03-23T08:00:48;1.65;;;1.40;;
55617;SDS011;41492;49.804;9.952;2024-03-23T08:03:15;1.50;;;1.40;;
55617;SDS011;41492;49.804;9.952;2024-03-23T08:05:42;1.35;;;1.23;;
55617;SDS011;41492;49.804;9.952;2024-03-23T08:08:09;1.45;;;1.35;;
55617;SDS011;41492;49.804;9.952;2024-03-23T08:10:34;1.27;;;1.17;;
55617;SDS011;41492;49.804;9.952;2024-03-23T08:13:01;2.00;;;1.60;;
55617;SDS011;41492;49.804;9.952;2024-03-23T08:15:27;1.50;;;1.40;;
55617;SDS011;41492;49.804;9.952;2024-03-23T08:17:58;1.30;;;1.20;;
55617;SDS011;41492;49.804;9.952;2024-03-23T08:20:23;1.35;;;1.00;;
55617;SDS011;41492;49.804;9.952;2024-03-23T08:22:51;1.88;;;1.02;;
55617;SDS011;41492;49.804;9.952;2024-03-23T08:25:17;1.55;;;1.45;;
55617;SDS011;41492;49.804;9.952;2024-03-23T08:27:44;3.85;;;1.27;;
55617;SDS011;41492;49.804;9.952;2024-03-23T08:30:10;1.20;;;1.10;;
55617;SDS011;41492;49.804;9.952;2024-03-23T08:32:37;1.30;;;1.20;;
55617;SDS011;41492;49.804;9.952;2024-03-23T08:35:02;0.90;;;0.90;;
55617;SDS011;41492;49.804;9.952;2024-03-23T08:37:29;0.77;;;0.77;;
55617;SDS011;41492;49.804;9.952;2024-03-23T08:39:56;1.48;;;1.38;;
55617;SDS011;41492;49.804;9.952;2024-03-23T08:42:22;1.90;;;0.90;;
55617;SDS011;41492;49.804;9.952;2024-03-23T08:44:48;1.00;;;1.00;;
55617;SDS011;41492;49.804;9.952;2024-03-23T08:47:15;1.75;;;1.25;;
55617;SDS011;41492;49.804;9.952;2024-03-23T08:49:41;1.58;;;1.13;;
55617;SDS011;41492;49.804;9.952;2024-03-23T08:52:08;1.20;;;1.10;;
55617;SDS011;41492;49.804;9.952;2024-03-23T08:54:34;1.10;;;1.00;;
55617;SDS011;41492;49.804;9.952;2024-03-23T08:57:02;2.90;;;1.15;;
55617;SDS011;41492;49.804;9.952;2024-03-23T08:59:27;1.75;;;1.00;;
55617;SDS011;41492;49.804;9.952;2024-03-23T09:01:54;1.05;;;0.98;;
55617;SDS011;41492;49.804;9.952;2024-03-23T09:04:20;0.90;;;0.90;;
55617;SDS011;41492;49.804;9.952;2024-03-23T09:06:47;1.20;;;1.10;;
55617;SDS011;41492;49.804;9.952;2024-03-23T09:09:13;1.50;;;1.10;;
55617;SDS011;41492;49.804;9.952;2024-03-23T09:11:39;3.30;;;1.33;;
55617;SDS011;41492;49.804;9.952;2024-03-23T09:14:06;1.67;;;1.13;;
55617;SDS011;41492;49.804;9.952;2024-03-23T09:16:34;3.05;;;1.17;;
55617;SDS011;41492;49.804;9.952;2024-03-23T09:18:59;5.78;;;1.90;;
55617;SDS011;41492;49.804;9.952;2024-03-23T09:21:26;1.77;;;1.10;;
55617;SDS011;41492;49.804;9.952;2024-03-23T09:23:51;3.22;;;1.00;;
55617;SDS011;41492;49.804;9.952;2024-03-23T09:26:18;5.00;;;1.30;;
55617;SDS011;41492;49.804;9.952;2024-03-23T09:28:44;5.97;;;1.40;;
55617;SDS011;41492;49.804;9.952;2024-03-23T09:31:12;1.80;;;1.00;;
55617;SDS011;41492;49.804;9.952;2024-03-23T09:33:40;2.67;;;1.55;;
55617;SDS011;41492;49.804;9.952;2024-03-23T09:36:07;1.10;;;0.95;;
55617;SDS011;41492;49.804;9.952;2024-03-23T09:38:33;2.33;;;0.88;;
55617;SDS011;41492;49.804;9.952;2024-03-23T09:41:00;3.40;;;1.08;;
55617;SDS011;41492;49.804;9.952;2024-03-23T09:43:26;1.65;;;1.00;;
55617;SDS011;41492;49.804;9.952;2024-03-23T09:45:52;1.02;;;1.00;;
55617;SDS011;41492;49.804;9.952;2024-03-23T09:48:19;9.65;;;1.63;;
55617;SDS011;41492;49.804;9.952;2024-03-23T09:50:46;1.00;;;0.90;;
55617;SDS011;41492;49.804;9.952;2024-03-23T09:53:15;1.02;;;0.85;;
55617;SDS011;41492;49.804;9.952;2024-03-23T09:55:42;2.75;;;0.82;;
55617;SDS011;41492;49.804;9.952;2024-03-23T09:58:08;0.85;;;0.85;;
55617;SDS011;41492;49.804;9.952;2024-03-23T10:00:39;1.80;;;1.45;;
55617;SDS011;41492;49.804;9.952;2024-03-23T10:03:04;1.80;;;1.13;;
55617;SDS011;41492;49.804;9.952;2024-03-23T10:05:33;1.17;;;0.90;;
55617;SDS011;41492;49.804;9.952;2024-03-23T10:08:00;1.02;;;0.80;;
55617;SDS011;41492;49.804;9.952;2024-03-23T10:10:26;5.13;;;1.30;;
55617;SDS011;41492;49.804;9.952;2024-03-23T10:12:52;1.52;;;1.05;;
55617;SDS011;41492;49.804;9.952;2024-03-23T10:15:18;1.20;;;0.82;;
55617;SDS011;41492;49.804;9.952;2024-03-23T10:17:45;1.20;;;0.93;;
55617;SDS011;41492;49.804;9.952;2024-03-23T10:20:11;2.78;;;1.00;;
55617;SDS011;41492;49.804;9.952;2024-03-23T10:22:40;2.97;;;1.20;;
55617;SDS011;41492;49.804;9.952;2024-03-23T10:25:07;1.98;;;1.20;;
55617;SDS011;41492;49.804;9.952;2024-03-23T10:27:34;1.00;;;0.80;;
55617;SDS011;41492;49.804;9.952;2024-03-23T10:30:08;2.60;;;1.02;;
55617;SDS011;41492;49.804;9.952;2024-03-23T10:32:35;3.47;;;1.35;;
55617;SDS011;41492;49.804;9.952;2024-03-23T10:35:13;1.05;;;0.95;;
55617;SDS011;41492;49.804;9.952;2024-03-23T10:37:42;1.80;;;0.90;;
55617;SDS011;41492;49.804;9.952;2024-03-23T10:40:09;1.30;;;0.90;;
55617;SDS011;41492;49.804;9.952;2024-03-23T10:42:37;3.80;;;0.95;;
55617;SDS011;41492;49.804;9.952;2024-03-23T10:45:04;1.15;;;0.80;;
55617;SDS011;41492;49.804;9.952;2024-03-23T10:47:31;8.30;;;1.27;;
55617;SDS011;41492;49.804;9.952;2024-03-23T10:49:57;1.08;;;1.02;;
55617;SDS011;41492;49.804;9.952;2024-03-23T10:52:24;2.45;;;0.90;;
55617;SDS011;41492;49.804;9.952;2024-03-23T10:54:51;2.10;;;1.17;;
55617;SDS011;41492;49.804;9.952;2024-03-23T10:57:18;1.50;;;0.90;;
55617;SDS011;41492;49.804;9.952;2024-03-23T10:59:46;1.25;;;1.00;;
55617;SDS011;41492;49.804;9.952;2024-03-23T11:02:18;2.45;;;0.95;;
55617;SDS011;41492;49.804;9.952;2024-03-23T11:04:44;3.25;;;0.90;;
55617;SDS011;41492;49.804;9.952;2024-03-23T11:09:55;3.25;;;1.25;;
55617;SDS011;41492;49.804;9.952;2024-03-23T11:12:25;2.38;;;1.27;;
55617;SDS011;41492;49.804;9.952;2024-03-23T11:14:58;2.45;;;1.13;;
55617;SDS011;41492;49.804;9.952;2024-03-23T11:17:27;1.83;;;0.95;;
55617;SDS011;41492;49.804;9.952;2024-03-23T11:19:53;3.92;;;1.23;;
55617;SDS011;41492;49.804;9.952;2024-03-23T11:22:40;1.88;;;1.27;;
55617;SDS011;41492;49.804;9.952;2024-03-23T11:25:15;3.47;;;1.05;;
55617;SDS011;41492;49.804;9.952;2024-03-23T11:27:43;1.48;;;1.00;;
55617;SDS011;41492;49.804;9.952;2024-03-23T11:30:13;1.83;;;0.90;;
55617;SDS011;41492;49.804;9.952;2024-03-23T11:32:41;2.88;;;1.13;;
55617;SDS011;41492;49.804;9.952;2024-03-23T11:35:07;3.25;;;1.23;;
55617;SDS011;41492;49.804;9.952;2024-03-23T11:37:35;1.95;;;1.38;;
55617;SDS011;41492;49.804;9.952;2024-03-23T11:42:45;1.52;;;1.42;;
55617;SDS011;41492;49.804;9.952;2024-03-23T11:45:11;3.53;;;1.63;;
55617;SDS011;41492;49.804;9.952;2024-03-23T11:47:39;1.92;;;1.00;;
55617;SDS011;41492;49.804;9.952;2024-03-23T11:50:05;4.63;;;1.73;;
55617;SDS011;41492;49.804;9.952;2024-03-23T11:52:31;4.10;;;1.35;;
55617;SDS011;41492;49.804;9.952;2024-03-23T11:55:02;2.13;;;1.30;;
55617;SDS011;41492;49.804;9.952;2024-03-23T11:57:31;2.35;;;1.00;;
55617;SDS011;41492;49.804;9.952;2024-03-23T11:59:56;3.80;;;1.50;;
55617;SDS011;41492;49.804;9.952;2024-03-23T12:02:23;2.58;;;1.52;;
55617;SDS011;41492;49.804;9.952;2024-03-23T12:04:49;1.42;;;1.10;;
55617;SDS011;41492;49.804;9.952;2024-03-23T12:07:16;2.90;;;1.30;;
55617;SDS011;41492;49.804;9.952;2024-03-23T12:09:43;1.95;;;0.90;;
55617;SDS011;41492;49.804;9.952;2024-03-23T12:12:13;5.07;;;1.42;;
55617;SDS011;41492;49.804;9.952;2024-03-23T12:14:41;1.17;;;0.90;;
55617;SDS011;41492;49.804;9.952;2024-03-23T12:17:09;3.45;;;1.13;;
55617;SDS011;41492;49.804;9.952;2024-03-23T12:19:35;3.10;;;1.60;;
55617;SDS011;41492;49.804;9.952;2024-03-23T12:22:02;1.75;;;1.45;;
55617;SDS011;41492;49.804;9.952;2024-03-23T12:24:29;2.03;;;1.20;;
55617;SDS011;41492;49.804;9.952;2024-03-23T12:26:59;3.42;;;1.25;;
55617;SDS011;41492;49.804;9.952;2024-03-23T12:29:28;2.75;;;1.10;;
55617;SDS011;41492;49.804;9.952;2024-03-23T12:31:58;3.17;;;1.40;;
55617;SDS011;41492;49.804;9.952;2024-03-23T12:34:24;4.68;;;1.15;;
55617;SDS011;41492;49.804;9.952;2024-03-23T12:36:51;2.05;;;1.17;;
55617;SDS011;41492;49.804;9.952;2024-03-23T12:39:17;1.00;;;0.98;;
55617;SDS011;41492;49.804;9.952;2024-03-23T12:41:44;1.85;;;1.20;;
55617;SDS011;41492;49.804;9.952;2024-03-23T12:44:10;3.85;;;1.42;;
55617;SDS011;41492;49.804;9.952;2024-03-23T12:46:37;1.65;;;1.25;;
55617;SDS011;41492;49.804;9.952;2024-03-23T12:49:04;1.85;;;1.10;;
55617;SDS011;41492;49.804;9.952;2024-03-23T12:51:31;1.42;;;1.05;;
55617;SDS011;41492;49.804;9.952;2024-03-23T12:53:56;3.05;;;1.27;;
55617;SDS011;41492;49.804;9.952;2024-03-23T12:56:23;4.13;;;1.50;;
55617;SDS011;41492;49.804;9.952;2024-03-23T12:58:49;1.30;;;1.17;;
55617;SDS011;41492;49.804;9.952;2024-03-23T13:01:16;2.13;;;1.30;;
55617;SDS011;41492;49.804;9.952;2024-03-23T13:03:42;4.70;;;1.60;;
55617;SDS011;41492;49.804;9.952;2024-03-23T13:06:11;2.50;;;1.17;;
55617;SDS011;41492;49.804;9.952;2024-03-23T13:08:36;2.85;;;1.70;;
55617;SDS011;41492;49.804;9.952;2024-03-23T13:11:03;2.03;;;1.38;;
55617;SDS011;41492;49.804;9.952;2024-03-23T13:13:28;1.65;;;1.20;;
55617;SDS011;41492;49.804;9.952;2024-03-23T13:15:56;3.25;;;1.52;;
55617;SDS011;41492;49.804;9.952;2024-03-23T13:18:22;1.42;;;1.30;;
55617;SDS011;41492;49.804;9.952;2024-03-23T13:20:49;2.40;;;1.35;;
55617;SDS011;41492;49.804;9.952;2024-03-23T13:23:16;2.53;;;1.67;;
55617;SDS011;41492;49.804;9.952;2024-03-23T13:25:49;1.83;;;1.38;;
55617;SDS011;41492;49.804;9.952;2024-03-23T13:28:15;3.75;;;1.38;;
55617;SDS011;41492;49.804;9.952;2024-03-23T13:30:49;3.05;;;1.58;;
55617;SDS011;41492;49.804;9.952;2024-03-23T13:33:15;1.55;;;1.35;;
55617;SDS011;41492;49.804;9.952;2024-03-23T13:35:48;2.95;;;1.60;;
55617;SDS011;41492;49.804;9.952;2024-03-23T13:38:15;3.45;;;1.55;;
55617;SDS011;41492;49.804;9.952;2024-03-23T13:40:49;3.58;;;1.40;;
55617;SDS011;41492;49.804;9.952;2024-03-23T13:43:17;4.00;;;1.85;;
55617;SDS011;41492;49.804;9.952;2024-03-23T13:45:44;3.63;;;1.60;;
55617;SDS011;41492;49.804;9.952;2024-03-23T13:48:10;2.05;;;1.35;;
55617;SDS011;41492;49.804;9.952;2024-03-23T13:50:36;3.03;;;1.50;;
55617;SDS011;41492;49.804;9.952;2024-03-23T13:53:02;2.45;;;1.67;;
55617;SDS011;41492;49.804;9.952;2024-03-23T13:55:30;3.03;;;1.77;;
55617;SDS011;41492;49.804;9.952;2024-03-23T13:57:56;2.72;;;1.50;;
55617;SDS011;41492;49.804;9.952;2024-03-23T14:00:22;2.08;;;1.30;;
55617;SDS011;41492;49.804;9.952;2024-03-23T14:02:48;3.42;;;1.70;;
55617;SDS011;41492;49.804;9.952;2024-03-23T14:05:15;3.28;;;1.50;;
55617;SDS011;41492;49.804;9.952;2024-03-23T14:07:40;2.47;;;1.13;;
55617;SDS011;41492;49.804;9.952;2024-03-23T14:10:07;3.00;;;1.42;;
55617;SDS011;41492;49.804;9.952;2024-03-23T14:12:37;1.40;;;1.13;;
55617;SDS011;41492;49.804;9.952;2024-03-23T14:15:05;3.15;;;1.50;;
55617;SDS011;41492;49.804;9.952;2024-03-23T14:17:31;4.35;;;1.90;;
55617;SDS011;41492;49.804;9.952;2024-03-23T14:19:57;2.55;;;1.60;;
55617;SDS011;41492;49.804;9.952;2024-03-23T14:22:26;4.00;;;1.40;;
55617;SDS011;41492;49.804;9.952;2024-03-23T14:24:53;3.00;;;1.55;;
55617;SDS011;41492;49.804;9.952;2024-03-23T14:27:18;2.78;;;1.42;;
55617;SDS011;41492;49.804;9.952;2024-03-23T14:29:47;1.67;;;1.52;;
55617;SDS011;41492;49.804;9.952;2024-03-23T14:32:13;2.53;;;1.65;;
55617;SDS011;41492;49.804;9.952;2024-03-23T14:34:40;2.72;;;1.60;;
55617;SDS011;41492;49.804;9.952;2024-03-23T14:37:06;2.15;;;1.83;;
55617;SDS011;41492;49.804;9.952;2024-03-23T14:39:32;1.90;;;1.67;;
55617;SDS011;41492;49.804;9.952;2024-03-23T14:41:59;2.17;;;1.35;;
55617;SDS011;41492;49.804;9.952;2024-03-23T14:44:26;2.10;;;1.30;;
55617;SDS011;41492;49.804;9.952;2024-03-23T14:46:54;2.45;;;1.40;;
55617;SDS011;41492;49.804;9.952;2024-03-23T14:49:21;1.60;;;1.33;;
55617;SDS011;41492;49.804;9.952;2024-03-23T14:51:46;2.42;;;1.50;;
55617;SDS011;41492;49.804;9.952;2024-03-23T14:54:13;1.55;;;1.33;;
55617;SDS011;41492;49.804;9.952;2024-03-23T14:56:39;2.45;;;1.38;;
55617;SDS011;41492;49.804;9.952;2024-03-23T14:59:05;2.78;;;1.60;;
55617;SDS011;41492;49.804;9.952;2024-03-23T15:01:32;2.45;;;1.67;;
55617;SDS011;41492;49.804;9.952;2024-03-23T15:04:00;1.15;;;1.00;;
55617;SDS011;41492;49.804;9.952;2024-03-23T15:06:25;1.83;;;1.13;;
55617;SDS011;41492;49.804;9.952;2024-03-23T15:08:52;2.00;;;1.25;;
55617;SDS011;41492;49.804;9.952;2024-03-23T15:11:19;1.40;;;1.30;;
55617;SDS011;41492;49.804;9.952;2024-03-23T15:13:46;1.33;;;1.10;;
55617;SDS011;41492;49.804;9.952;2024-03-23T15:16:16;2.65;;;1.40;;
55617;SDS011;41492;49.804;9.952;2024-03-23T15:18:45;3.10;;;1.30;;
55617;SDS011;41492;49.804;9.952;2024-03-23T15:21:12;2.22;;;1.27;;
55617;SDS011;41492;49.804;9.952;2024-03-23T15:23:44;2.25;;;1.25;;
55617;SDS011;41492;49.804;9.952;2024-03-23T15:26:10;1.52;;;1.17;;
55617;SDS011;41492;49.804;9.952;2024-03-23T15:28:37;3.15;;;1.33;;
55617;SDS011;41492;49.804;9.952;2024-03-23T15:31:06;2.30;;;1.30;;
55617;SDS011;41492;49.804;9.952;2024-03-23T15:33:34;2.83;;;1.25;;
55617;SDS011;41492;49.804;9.952;2024-03-23T15:36:00;1.55;;;1.13;;
55617;SDS011;41492;49.804;9.952;2024-03-23T15:38:28;2.72;;;1.60;;
55617;SDS011;41492;49.804;9.952;2024-03-23T15:40:54;2.72;;;1.38;;
55617;SDS011;41492;49.804;9.952;2024-03-23T15:43:21;1.17;;;1.08;;